Perkinsville, Vermont
Current Conditions -  °F | °C
As of 5:54 AM on Monday 22 Dec 2014 (Local Time) from KVSF Reporting Station
Haze Haze  
Wind Chill: 28°   Ceiling: 2000
Heat Index: 28°   Visibility: 4mi
Dew Point: 27°   Wind: 0mph
Humidity: 96%   Direction: NA
Pressure: 30.37"   Gusts: NA
Location:  43.37°N, 72.51°W
Report Text: KVSF 221054Z AUTO 00000KT 4SM BR OVC020 M02/M03 A3037 RMK AO2 SLP293 T10221028 TSNO
Loading
Personal Weather Stations






























Interactive Weather Map New forecast layout! Learn more

10-Day Weather Forecast

Advertisements
Track Severe Weather on mobile